Time;durP1;ratioP1;P1;durP2;ratioP2;P2;SDS_P1;SDS_P2;PMS_P1;PMS_P2;Temp;Humidity;BMP_temperature;BMP_pressure;BME280_temperature;BME280_humidity;BME280_pressure;Samples;Min_cycle;Max_cycle;Signal;HPM_P1;HPM_P2
2023/03/07 00:03:45;;;;;;;19.47;12.30;;;0.90;99.90;;;;;;8370470;28;20186;-70
2023/03/07 00:07:46;;;;;;;20.27;12.97;;;0.90;1.00;;;;;;8363000;28;20212;-70
2023/03/07 00:11:46;;;;;;;20.60;12.20;;;1.00;17.70;;;;;;8367633;28;20236;-70
2023/03/07 00:15:47;;;;;;;18.73;11.87;;;1.00;40.70;;;;;;8363500;28;20254;-69
2023/03/07 00:19:48;;;;;;;19.90;10.90;;;1.00;1.00;;;;;;8366148;28;20257;-70
2023/03/07 00:23:51;;;;;;;17.87;10.97;;;1.00;1.00;;;;;;8366367;28;20293;-68
2023/03/07 00:27:52;;;;;;;22.00;12.37;;;1.00;1.00;;;;;;8380450;28;20213;-68
2023/03/07 00:31:53;;;;;;;17.53;11.20;;;1.10;99.90;;;;;;8381091;28;20196;-69
2023/03/07 00:36:02;;;;;;;16.53;10.70;;;1.10;99.90;;;;;;8376508;28;20214;-67
2023/03/07 00:40:05;;;;;;;16.73;9.70;;;1.10;99.90;;;;;;8375699;28;20189;-69
2023/03/07 00:44:06;;;;;;;16.13;10.63;;;0.90;1.00;;;;;;8362409;28;20212;-68
2023/03/07 00:48:07;;;;;;;15.87;9.70;;;0.70;1.00;;;;;;8363824;28;20213;-68
2023/03/07 00:52:08;;;;;;;15.00;9.47;;;0.40;99.90;;;;;;8362831;28;20293;-69
2023/03/07 00:56:20;;;;;;;12.80;8.77;;;0.20;1.00;;;;;;8363375;28;20185;-69
2023/03/07 01:00:21;;;;;;;14.47;9.77;;;0.00;99.90;;;;;;8360997;28;20286;-69
2023/03/07 01:04:22;;;;;;;17.43;9.93;;;-0.10;1.00;;;;;;8358267;28;20411;-68
2023/03/07 01:08:23;;;;;;;16.20;10.47;;;-0.20;99.90;;;;;;8361058;28;20241;-68
2023/03/07 01:12:24;;;;;;;22.53;12.40;;;-0.20;99.90;;;;;;8359603;28;20185;-67
2023/03/07 01:16:28;;;;;;;19.07;11.53;;;-0.20;1.00;;;;;;8365867;28;20189;-68
2023/03/07 01:20:33;;;;;;;20.60;11.80;;;-0.20;99.90;;;;;;8366183;28;20196;-69
2023/03/07 01:24:34;;;;;;;18.57;11.70;;;-0.30;99.90;;;;;;8363398;28;20198;-68
2023/03/07 01:28:34;;;;;;;20.47;12.07;;;-0.50;15.40;;;;;;8362765;28;20189;-68
2023/03/07 01:32:35;;;;;;;19.20;10.83;;;-0.70;1.00;;;;;;8375577;28;20203;-68
2023/03/07 01:36:36;;;;;;;20.13;11.50;;;-0.90;99.90;;;;;;8365596;28;20265;-69
2023/03/07 01:40:37;;;;;;;18.27;10.20;;;-1.00;99.90;;;;;;8360439;28;20191;-68
2023/03/07 01:45:00;;;;;;;17.43;10.83;;;-1.10;99.90;;;;;;8363035;28;20207;-68
2023/03/07 01:49:47;;;;;;;19.40;10.27;;;-1.30;99.90;;;;;;8359261;28;20190;-67
2023/03/07 01:53:50;;;;;;;19.80;10.63;;;-1.30;1.00;;;;;;8380256;28;20307;-67
2023/03/07 01:57:53;;;;;;;17.10;9.70;;;-1.30;99.90;;;;;;8359581;28;20227;-67
2023/03/07 02:01:54;;;;;;;21.53;11.57;;;-1.20;99.90;;;;;;8360304;28;20188;-67
2023/03/07 02:06:00;;;;;;;21.27;11.43;;;-1.10;99.90;;;;;;8356532;28;20215;-67
2023/03/07 02:10:02;;;;;;;20.80;11.17;;;-1.10;99.90;;;;;;8363616;28;20205;-68
2023/03/07 02:14:03;;;;;;;23.33;13.00;;;-0.90;99.90;;;;;;8359190;28;20288;-67
2023/03/07 02:18:05;;;;;;;20.43;11.57;;;-0.90;99.90;;;;;;8361968;28;20194;-67
2023/03/07 02:22:12;;;;;;;21.47;11.17;;;-0.80;99.90;;;;;;8365519;28;20189;-67
2023/03/07 02:26:30;;;;;;;22.07;12.07;;;-0.80;99.90;;;;;;8360877;28;20204;-66
2023/03/07 02:30:31;;;;;;;20.63;11.30;;;-0.80;99.90;;;;;;8361340;28;20234;-66
2023/03/07 02:34:32;;;;;;;20.47;11.63;;;-1.00;99.90;;;;;;8363086;28;20188;-66
2023/03/07 02:38:36;;;;;;;20.30;11.67;;;-1.10;99.90;;;;;;8358223;28;20314;-68
2023/03/07 02:42:41;;;;;;;21.53;12.20;;;-1.10;99.90;;;;;;8361081;28;20256;-67
2023/03/07 02:46:41;;;;;;;19.40;11.47;;;-1.20;99.90;;;;;;8356116;28;20219;-67
2023/03/07 02:50:42;;;;;;;20.83;11.27;;;-1.10;99.90;;;;;;8363387;28;20257;-66
2023/03/07 02:54:43;;;;;;;22.30;11.30;;;-1.20;99.90;;;;;;8363171;28;20191;-66
2023/03/07 02:58:44;;;;;;;21.13;11.80;;;-1.10;99.90;;;;;;8366239;28;20226;-66
2023/03/07 03:02:45;;;;;;;21.47;11.47;;;-1.10;99.90;;;;;;8366735;28;20193;-66
2023/03/07 03:06:46;;;;;;;20.33;11.37;;;-1.10;99.90;;;;;;8369440;28;20287;-66
2023/03/07 03:10:52;;;;;;;21.33;11.47;;;-1.10;99.90;;;;;;8363333;28;20186;-67
2023/03/07 03:14:53;;;;;;;18.73;10.90;;;-0.90;99.90;;;;;;8365096;28;20181;-68
2023/03/07 03:18:54;;;;;;;20.43;11.10;;;-0.90;99.90;;;;;;8367703;28;20185;-67
2023/03/07 03:22:55;;;;;;;20.47;11.43;;;-0.80;99.90;;;;;;8370189;28;20189;-67
2023/03/07 03:26:56;;;;;;;20.27;10.97;;;-1.00;99.90;;;;;;8367503;28;20213;-67
2023/03/07 03:31:10;;;;;;;21.07;11.63;;;-1.10;99.90;;;;;;8368240;28;20259;-67
2023/03/07 03:35:11;;;;;;;18.03;10.43;;;-1.10;99.90;;;;;;8365079;28;20602;-66
2023/03/07 03:39:13;;;;;;;18.93;10.07;;;-1.20;99.90;;;;;;8362930;28;20228;-66
2023/03/07 03:43:14;;;;;;;18.33;10.70;;;-1.30;99.90;;;;;;8365252;28;20212;-66
2023/03/07 03:47:15;;;;;;;17.67;10.47;;;-1.30;99.90;;;;;;8366012;28;20266;-66
2023/03/07 03:51:16;;;;;;;18.73;9.93;;;-1.30;99.90;;;;;;8364799;28;20184;-66
2023/03/07 03:55:17;;;;;;;17.37;10.20;;;-1.30;99.90;;;;;;8368311;28;20193;-66
2023/03/07 03:59:17;;;;;;;19.30;10.47;;;-1.40;99.90;;;;;;8365132;28;20187;-66
2023/03/07 04:03:18;;;;;;;18.53;10.10;;;-1.40;99.90;;;;;;8358850;28;20175;-66
2023/03/07 04:07:19;;;;;;;17.77;10.27;;;-1.30;99.90;;;;;;8360047;28;20206;-66
2023/03/07 04:11:21;;;;;;;20.80;11.17;;;-1.30;99.90;;;;;;8358499;28;20188;-65
2023/03/07 04:15:22;;;;;;;20.07;10.20;;;-1.40;99.90;;;;;;8363952;28;20196;-66
2023/03/07 04:19:23;;;;;;;19.00;10.47;;;-1.40;99.90;;;;;;8363456;28;20177;-66
2023/03/07 04:23:24;;;;;;;16.53;9.17;;;-1.50;99.90;;;;;;8358479;28;20196;-65
2023/03/07 04:27:25;;;;;;;16.27;9.83;;;-1.50;99.90;;;;;;8368306;28;20251;-65
2023/03/07 04:31:27;;;;;;;18.93;10.43;;;-1.50;99.90;;;;;;8363179;28;20184;-65
2023/03/07 04:35:28;;;;;;;18.50;10.67;;;-1.50;99.90;;;;;;8362531;28;20202;-65
2023/03/07 04:39:28;;;;;;;21.10;11.07;;;-1.50;99.90;;;;;;8365601;28;20214;-65
2023/03/07 04:43:29;;;;;;;20.60;9.77;;;-1.50;99.90;;;;;;8362271;28;20198;-65
2023/03/07 04:47:30;;;;;;;20.53;10.80;;;-1.50;99.90;;;;;;8363951;28;20312;-65
2023/03/07 04:51:31;;;;;;;18.00;10.10;;;-1.40;99.90;;;;;;8362723;28;20181;-65
2023/03/07 04:55:32;;;;;;;19.50;10.70;;;-1.40;99.90;;;;;;8360409;28;20295;-65
2023/03/07 04:59:35;;;;;;;23.57;11.30;;;-1.50;99.90;;;;;;8362824;28;20325;-65
2023/03/07 05:03:35;;;;;;;21.30;10.50;;;-1.50;99.90;;;;;;8364916;28;20196;-64
2023/03/07 05:07:36;;;;;;;20.37;10.70;;;-1.40;99.90;;;;;;8363008;28;20216;-65
2023/03/07 05:11:37;;;;;;;21.50;11.30;;;-1.20;99.90;;;;;;8361842;28;20179;-65
2023/03/07 05:15:38;;;;;;;24.43;13.37;;;-1.10;99.90;;;;;;8365338;28;21312;-65
2023/03/07 05:19:39;;;;;;;22.33;12.17;;;-0.90;99.90;;;;;;8362108;28;20188;-65
2023/03/07 05:23:40;;;;;;;24.47;12.07;;;-0.90;99.90;;;;;;8361918;28;20287;-65
2023/03/07 05:27:41;;;;;;;22.37;12.23;;;-0.90;99.90;;;;;;8359443;28;20269;-65
2023/03/07 05:31:42;;;;;;;24.87;13.20;;;-0.90;99.90;;;;;;8362365;28;20192;-65
2023/03/07 05:35:43;;;;;;;27.53;13.30;;;-0.90;99.90;;;;;;8361437;28;20243;-65
2023/03/07 05:39:43;;;;;;;25.47;13.30;;;-1.00;99.90;;;;;;8361016;28;20195;-68
2023/03/07 05:43:44;;;;;;;21.30;12.33;;;-1.10;99.90;;;;;;8366433;28;20204;-70
2023/03/07 05:47:45;;;;;;;22.97;13.23;;;-1.20;99.90;;;;;;8360150;28;20203;-70
2023/03/07 05:51:46;;;;;;;23.70;13.50;;;-1.20;99.90;;;;;;8362399;28;20260;-69
2023/03/07 05:55:47;;;;;;;27.07;13.90;;;-1.10;99.90;;;;;;8363095;28;20221;-69
2023/03/07 05:59:48;;;;;;;26.53;15.03;;;-1.10;99.90;;;;;;8365486;28;20188;-69
2023/03/07 06:03:48;;;;;;;25.23;14.00;;;-1.00;99.90;;;;;;8360588;28;20188;-70
2023/03/07 06:07:49;;;;;;;27.17;15.70;;;-0.90;99.90;;;;;;8358427;28;20212;-69
2023/03/07 06:11:50;;;;;;;30.10;15.90;;;-0.80;99.90;;;;;;8361723;28;20181;-70
2023/03/07 06:15:54;;;;;;;35.53;17.47;;;-0.60;99.90;;;;;;8361421;28;20280;-70
2023/03/07 06:19:55;;;;;;;34.67;18.47;;;-0.50;99.90;;;;;;8363468;28;20181;-71
2023/03/07 06:23:56;;;;;;;36.60;18.10;;;-0.30;99.90;;;;;;8358214;28;20185;-71
2023/03/07 06:27:59;;;;;;;35.00;18.67;;;-0.20;99.90;;;;;;8368065;28;20214;-72
2023/03/07 06:32:00;;;;;;;35.77;19.47;;;0.00;99.90;;;;;;8372093;28;20275;-71
2023/03/07 06:36:05;;;;;;;35.87;19.67;;;0.30;99.90;;;;;;8370598;28;20314;-71
2023/03/07 06:40:08;;;;;;;35.90;20.13;;;0.60;99.90;;;;;;8370031;28;20389;-72
2023/03/07 06:44:09;;;;;;;30.90;18.57;;;0.90;99.90;;;;;;8365884;28;20194;-71
2023/03/07 06:48:10;;;;;;;32.20;18.90;;;1.20;99.90;;;;;;8366045;28;20205;-73
2023/03/07 06:52:11;;;;;;;33.73;18.97;;;1.50;99.90;;;;;;8368162;28;20277;-72
2023/03/07 06:56:12;;;;;;;32.90;19.43;;;1.80;99.90;;;;;;8369697;28;20196;-71
2023/03/07 07:00:13;;;;;;;31.37;18.93;;;1.90;99.90;;;;;;8365818;28;20554;-71
2023/03/07 07:04:14;;;;;;;27.73;17.97;;;2.00;99.90;;;;;;8367552;28;20189;-71
2023/03/07 07:08:15;;;;;;;26.90;16.83;;;2.00;99.90;;;;;;8374056;28;20209;-70
2023/03/07 07:12:16;;;;;;;23.67;15.53;;;2.10;99.90;;;;;;8372091;28;20178;-70
2023/03/07 07:16:17;;;;;;;22.83;14.30;;;2.20;99.90;;;;;;8370174;28;20188;-71
2023/03/07 07:20:18;;;;;;;23.60;14.33;;;2.30;99.90;;;;;;8383644;28;20186;-70
2023/03/07 07:24:19;;;;;;;20.90;14.07;;;2.50;99.90;;;;;;8367898;28;20196;-70
2023/03/07 07:28:20;;;;;;;21.73;14.40;;;2.70;7.20;;;;;;8364081;28;20248;-70
2023/03/07 07:32:21;;;;;;;21.27;14.47;;;2.90;1.00;;;;;;8364653;28;20181;-70
2023/03/07 07:36:22;;;;;;;20.00;13.50;;;3.40;1.00;;;;;;8365520;28;20211;-70
2023/03/07 07:40:23;;;;;;;17.53;12.43;;;4.00;99.90;;;;;;8378582;28;20186;-70
2023/03/07 07:44:24;;;;;;;18.83;12.77;;;4.30;99.90;;;;;;8366069;28;20356;-70
2023/03/07 07:48:24;;;;;;;17.57;12.27;;;4.50;99.90;;;;;;8365553;28;20236;-71
2023/03/07 07:52:25;;;;;;;17.13;11.93;;;4.40;99.90;;;;;;8370349;28;20277;-70
2023/03/07 07:56:26;;;;;;;16.53;11.80;;;4.40;99.90;;;;;;8363747;28;20204;-72
2023/03/07 08:00:27;;;;;;;14.83;11.00;;;4.30;99.90;;;;;;8369111;28;20190;-72
2023/03/07 08:04:28;;;;;;;17.00;11.30;;;4.40;99.90;;;;;;8360510;28;20186;-70
2023/03/07 08:08:29;;;;;;;15.10;11.03;;;4.40;99.90;;;;;;8375135;28;20212;-70
2023/03/07 08:12:30;;;;;;;21.63;13.10;;;4.40;99.90;;;;;;8360943;28;20191;-69
2023/03/07 08:16:31;;;;;;;19.40;12.10;;;4.50;99.90;;;;;;8368587;28;20182;-72
2023/03/07 08:20:31;;;;;;;18.63;12.20;;;4.60;99.90;;;;;;8365014;28;20295;-71
2023/03/07 08:24:34;;;;;;;16.77;12.00;;;4.70;99.90;;;;;;8363303;28;20182;-72
2023/03/07 08:28:35;;;;;;;17.80;12.57;;;4.90;99.90;;;;;;8382412;28;20247;-72
2023/03/07 08:32:36;;;;;;;16.63;12.00;;;4.90;99.90;;;;;;8369354;28;20189;-73
2023/03/07 08:36:38;;;;;;;18.77;12.53;;;4.80;99.90;;;;;;8373075;28;20323;-73
2023/03/07 08:40:39;;;;;;;20.07;13.23;;;4.80;99.90;;;;;;8373802;28;21752;-71
2023/03/07 08:44:39;;;;;;;19.20;12.40;;;4.70;99.90;;;;;;8375993;28;20205;-71
2023/03/07 08:48:40;;;;;;;17.93;13.30;;;4.70;99.90;;;;;;8380602;28;20209;-72
2023/03/07 08:52:42;;;;;;;18.37;13.70;;;4.70;99.90;;;;;;8379552;28;20243;-72
2023/03/07 08:56:43;;;;;;;21.87;13.43;;;4.80;99.90;;;;;;8378194;28;20249;-72
2023/03/07 09:00:44;;;;;;;17.63;12.17;;;4.90;99.90;;;;;;8383542;28;20235;-73
2023/03/07 09:04:44;;;;;;;18.07;12.43;;;5.20;99.90;;;;;;8379895;28;20193;-72
2023/03/07 09:08:46;;;;;;;18.53;12.90;;;5.30;99.90;;;;;;8381762;28;20224;-75
2023/03/07 09:12:49;;;;;;;17.67;12.70;;;5.40;99.90;;;;;;8382460;28;20182;-73
2023/03/07 09:16:50;;;;;;;16.70;11.87;;;5.60;99.90;;;;;;8380927;28;20181;-74
2023/03/07 09:20:51;;;;;;;16.50;11.73;;;5.70;99.90;;;;;;8374736;28;20196;-74
2023/03/07 09:24:52;;;;;;;14.20;11.07;;;5.70;99.90;;;;;;8376401;28;20189;-74
2023/03/07 09:28:53;;;;;;;16.67;11.37;;;5.90;99.90;;;;;;8381462;28;20206;-73
2023/03/07 09:32:55;;;;;;;15.87;10.40;;;6.10;99.90;;;;;;8366771;28;20185;-72
2023/03/07 09:36:56;;;;;;;14.53;11.07;;;6.30;90.00;;;;;;8371752;28;20204;-72
2023/03/07 09:41:26;;;;;;;15.40;11.23;;;6.30;97.30;;;;;;8382116;28;20177;-73
2023/03/07 09:45:54;;;;;;;15.03;10.43;;;6.50;99.90;;;;;;8374575;28;20213;-73
2023/03/07 09:49:55;;;;;;;11.83;9.23;;;6.60;39.00;;;;;;8386431;28;20295;-72
2023/03/07 09:54:10;;;;;;;14.13;9.33;;;6.50;30.00;;;;;;8372321;28;20678;-75
2023/03/07 09:58:17;;;;;;;14.17;9.73;;;6.40;33.70;;;;;;8370447;28;20240;-73
2023/03/07 10:02:30;;;;;;;11.40;8.97;;;6.60;36.40;;;;;;8382022;28;20219;-73
2023/03/07 10:06:40;;;;;;;12.50;9.20;;;7.00;26.70;;;;;;8382148;28;20212;-74
2023/03/07 10:10:48;;;;;;;13.97;9.20;;;7.20;9.80;;;;;;8389625;28;20174;-74
2023/03/07 10:15:22;;;;;;;10.90;8.60;;;7.30;1.00;;;;;;8375788;28;20188;-75
2023/03/07 10:19:48;;;;;;;13.27;8.73;;;7.30;1.00;;;;;;8376972;28;20182;-75
2023/03/07 10:24:13;;;;;;;13.07;9.37;;;7.30;1.00;;;;;;8377778;28;20180;-73
2023/03/07 10:28:21;;;;;;;11.47;8.67;;;7.50;1.00;;;;;;8380683;28;20282;-75
2023/03/07 10:32:34;;;;;;;13.53;9.10;;;7.80;1.00;;;;;;8384322;28;20231;-74
2023/03/07 10:36:43;;;;;;;11.17;8.47;;;8.00;1.00;;;;;;8376176;28;20213;-71
2023/03/07 10:40:57;;;;;;;15.17;8.57;;;7.70;1.00;;;;;;8375121;28;20216;-74
2023/03/07 10:45:00;;;;;;;10.10;7.80;;;7.60;1.00;;;;;;8376051;28;20194;-72
2023/03/07 10:49:22;;;;;;;10.93;8.37;;;7.70;1.00;;;;;;8374024;28;20264;-73
2023/03/07 10:53:31;;;;;;;10.33;7.77;;;7.70;1.00;;;;;;8373163;28;20258;-74
2023/03/07 10:57:32;;;;;;;9.53;8.10;;;7.80;1.00;;;;;;8372136;28;20257;-72
2023/03/07 11:01:34;;;;;;;10.83;8.27;;;7.70;1.00;;;;;;8369315;28;20235;-74
2023/03/07 11:05:36;;;;;;;10.70;8.17;;;7.50;1.00;;;;;;8382910;28;20206;-72
2023/03/07 11:09:46;;;;;;;11.43;8.27;;;7.50;1.00;;;;;;8380150;28;20174;-73
2023/03/07 11:14:03;;;;;;;9.93;7.77;;;7.80;1.00;;;;;;8395842;28;20182;-74
2023/03/07 11:18:23;;;;;;;12.93;8.03;;;7.90;1.00;;;;;;8375929;28;20197;-73
2023/03/07 11:22:35;;;;;;;10.93;7.67;;;7.90;1.00;;;;;;8380529;28;20190;-74
2023/03/07 11:26:39;;;;;;;9.20;7.60;;;8.10;1.00;;;;;;8377077;28;20212;-75
2023/03/07 11:30:51;;;;;;;10.63;8.30;;;8.10;1.00;;;;;;8377405;28;20233;-73
2023/03/07 11:35:05;;;;;;;9.47;7.37;;;8.10;1.00;;;;;;8375932;28;20201;-75
2023/03/07 11:39:21;;;;;;;11.43;7.97;;;8.10;1.00;;;;;;8379487;28;20190;-75
2023/03/07 11:43:45;;;;;;;9.57;7.13;;;8.30;1.00;;;;;;8377579;28;20213;-73
2023/03/07 11:48:13;;;;;;;8.07;6.50;;;8.40;1.00;;;;;;8372564;28;20334;-73
2023/03/07 11:53:04;;;;;;;12.37;7.63;;;8.20;1.00;;;;;;8374186;28;20186;-74
2023/03/07 11:57:27;;;;;;;11.50;7.47;;;8.20;1.00;;;;;;8361095;28;20288;-74
2023/03/07 12:01:54;;;;;;;7.73;6.47;;;8.30;1.00;;;;;;8377405;28;20224;-75
2023/03/07 12:06:20;;;;;;;10.37;6.33;;;8.20;1.00;;;;;;8378684;28;20205;-73
2023/03/07 12:10:37;;;;;;;7.90;6.17;;;8.40;1.00;;;;;;8382430;28;20216;-73
2023/03/07 12:14:46;;;;;;;7.57;6.57;;;8.40;1.00;;;;;;8372174;28;20216;-76
2023/03/07 12:19:26;;;;;;;7.20;5.93;;;8.40;1.00;;;;;;8390762;28;20201;-73
2023/03/07 12:23:53;;;;;;;8.00;6.17;;;8.40;1.00;;;;;;8375013;28;20186;-73
2023/03/07 12:28:02;;;;;;;9.13;7.00;;;8.30;1.00;;;;;;8380796;28;20247;-74
2023/03/07 12:32:13;;;;;;;8.07;6.80;;;8.30;1.00;;;;;;8371626;28;20281;-73
2023/03/07 12:36:26;;;;;;;7.80;5.77;;;8.20;1.00;;;;;;8378226;28;20286;-75
2023/03/07 12:40:50;;;;;;;8.50;6.43;;;8.00;1.00;;;;;;8374420;28;20223;-74
2023/03/07 12:44:57;;;;;;;8.17;6.50;;;8.00;1.00;;;;;;8376050;28;20197;-76
2023/03/07 12:49:08;;;;;;;9.80;6.17;;;8.10;1.00;;;;;;8372023;28;20216;-74
2023/03/07 12:53:45;;;;;;;7.47;5.83;;;8.30;1.00;;;;;;8380808;28;20170;-73
2023/03/07 12:58:03;;;;;;;8.60;6.50;;;8.40;1.00;;;;;;8383138;28;20236;-72
2023/03/07 13:02:14;;;;;;;8.43;6.00;;;8.50;1.00;;;;;;8383962;28;20181;-73
2023/03/07 13:06:20;;;;;;;7.77;6.60;;;8.60;1.00;;;;;;8385042;28;20235;-73
2023/03/07 13:10:23;;;;;;;8.33;6.40;;;8.60;1.00;;;;;;8377885;28;20195;-73
2023/03/07 13:15:07;;;;;;;7.90;6.30;;;8.50;1.00;;;;;;8382533;28;20231;-74
2023/03/07 13:19:35;;;;;;;6.93;5.97;;;8.60;1.00;;;;;;8376103;28;20205;-73
2023/03/07 13:23:39;;;;;;;8.93;6.47;;;8.60;1.00;;;;;;8382344;28;20289;-74
2023/03/07 13:27:39;;;;;;;7.77;6.20;;;8.70;1.00;;;;;;8379456;28;20205;-75
2023/03/07 13:31:41;;;;;;;7.67;5.97;;;8.60;1.00;;;;;;8376898;28;20188;-74
2023/03/07 13:35:45;;;;;;;6.60;5.63;;;8.40;1.00;;;;;;8378535;28;20703;-72
2023/03/07 13:40:01;;;;;;;6.50;5.47;;;8.20;1.00;;;;;;8381385;28;20190;-73
2023/03/07 13:44:02;;;;;;;8.00;6.30;;;8.10;1.00;;;;;;8378033;28;20197;-74
2023/03/07 13:48:09;;;;;;;7.87;6.00;;;8.00;1.00;;;;;;8375186;28;20213;-73
2023/03/07 13:52:35;;;;;;;8.10;6.37;;;7.90;1.00;;;;;;8371718;28;20597;-73
2023/03/07 13:56:41;;;;;;;8.37;6.03;;;7.80;1.00;;;;;;8370784;28;20188;-74
2023/03/07 14:00:51;;;;;;;7.00;5.83;;;7.90;1.00;;;;;;8385697;28;20193;-72
2023/03/07 14:04:54;;;;;;;7.20;6.00;;;7.80;1.00;;;;;;8379906;28;20185;-72
2023/03/07 14:08:58;;;;;;;8.60;5.87;;;7.80;1.00;;;;;;8382249;28;20214;-73
2023/03/07 14:13:11;;;;;;;8.73;6.37;;;7.70;1.00;;;;;;8385657;28;20265;-75
2023/03/07 14:17:58;;;;;;;7.03;5.80;;;7.60;1.00;;;;;;8374666;28;20186;-73
2023/03/07 14:22:25;;;;;;;7.83;6.13;;;7.60;1.00;;;;;;8373881;28;20288;-73
2023/03/07 14:26:32;;;;;;;6.80;5.40;;;7.60;1.00;;;;;;8371659;28;20210;-74
2023/03/07 14:30:36;;;;;;;11.23;5.83;;;7.70;1.00;;;;;;8378992;28;20174;-72
2023/03/07 14:34:38;;;;;;;9.47;6.70;;;7.60;1.00;;;;;;8376724;28;20591;-74
2023/03/07 14:38:41;;;;;;;7.00;5.57;;;7.60;1.00;;;;;;8383516;28;20185;-73
2023/03/07 14:43:02;;;;;;;6.73;4.90;;;7.60;1.00;;;;;;8388324;28;20293;-73
2023/03/07 14:47:15;;;;;;;5.80;5.10;;;7.50;1.00;;;;;;8378753;28;20201;-73
2023/03/07 14:51:20;;;;;;;8.30;5.33;;;7.40;1.00;;;;;;8387190;28;20192;-75
2023/03/07 14:55:23;;;;;;;6.40;5.37;;;7.30;1.00;;;;;;8380276;28;20181;-74
2023/03/07 14:59:24;;;;;;;6.03;5.43;;;7.30;1.00;;;;;;8386101;28;20178;-73
2023/03/07 15:03:25;;;;;;;6.57;5.27;;;7.40;1.00;;;;;;8380307;28;20461;-75
2023/03/07 15:07:26;;;;;;;7.67;4.83;;;7.30;1.00;;;;;;8376887;28;20308;-72
2023/03/07 15:11:43;;;;;;;5.67;4.50;;;7.30;1.00;;;;;;8371210;28;20204;-74
2023/03/07 15:15:56;;;;;;;5.13;4.27;;;7.30;1.00;;;;;;8370400;28;20197;-72
2023/03/07 15:20:19;;;;;;;5.77;4.63;;;7.20;1.00;;;;;;8370482;28;20177;-73
2023/03/07 15:24:43;;;;;;;6.00;4.77;;;7.10;1.00;;;;;;8366337;28;20217;-73
2023/03/07 15:28:44;;;;;;;6.43;4.77;;;7.20;1.00;;;;;;8373262;28;20218;-71
2023/03/07 15:32:45;;;;;;;5.47;4.87;;;7.20;1.00;;;;;;8368668;28;20185;-72
2023/03/07 15:36:46;;;;;;;6.30;4.90;;;7.10;1.00;;;;;;8372658;28;20205;-74
2023/03/07 15:40:47;;;;;;;7.87;4.80;;;7.10;1.00;;;;;;8367891;28;20285;-71
2023/03/07 15:44:59;;;;;;;6.83;4.97;;;7.10;1.00;;;;;;8381917;28;20205;-72
2023/03/07 15:49:00;;;;;;;6.13;4.40;;;7.00;1.00;;;;;;8381074;28;20221;-72
2023/03/07 15:53:26;;;;;;;6.10;5.03;;;7.00;1.00;;;;;;8365281;28;20239;-68
2023/03/07 15:57:36;;;;;;;6.37;5.40;;;6.90;1.00;;;;;;8365926;28;20185;-68
2023/03/07 16:01:37;;;;;;;8.77;5.77;;;6.80;1.00;;;;;;8370825;28;20202;-68
2023/03/07 16:05:39;;;;;;;8.33;5.37;;;6.70;1.00;;;;;;8368362;28;20867;-67
2023/03/07 16:09:39;;;;;;;9.53;4.80;;;6.60;1.00;;;;;;8366075;28;20204;-68
2023/03/07 16:13:43;;;;;;;6.30;4.73;;;6.60;1.00;;;;;;8364298;28;20185;-68
2023/03/07 16:17:44;;;;;;;6.17;5.17;;;6.50;1.00;;;;;;8374479;28;20196;-67
2023/03/07 16:21:45;;;;;;;6.80;4.87;;;6.50;1.00;;;;;;8367889;28;20415;-67
2023/03/07 16:25:46;;;;;;;8.53;5.53;;;6.40;1.00;;;;;;8372386;28;20281;-67
2023/03/07 16:29:48;;;;;;;5.67;4.70;;;6.40;1.00;;;;;;8375468;28;20185;-67
2023/03/07 16:33:50;;;;;;;7.60;5.37;;;6.30;1.00;;;;;;8367032;28;20182;-69
2023/03/07 16:37:51;;;;;;;7.33;5.53;;;6.40;1.00;;;;;;8379145;28;20236;-67
2023/03/07 16:41:52;;;;;;;7.13;4.93;;;6.30;1.00;;;;;;8373767;28;20264;-67
2023/03/07 16:45:54;;;;;;;7.10;4.70;;;6.30;1.00;;;;;;8380231;28;20212;-67
2023/03/07 16:49:56;;;;;;;4.93;3.83;;;6.20;1.00;;;;;;8376260;28;20191;-67
2023/03/07 16:53:58;;;;;;;5.77;4.43;;;6.10;1.00;;;;;;8379145;28;20196;-67
2023/03/07 16:58:03;;;;;;;5.50;4.73;;;6.10;1.00;;;;;;8362867;28;20302;-67
2023/03/07 17:02:30;;;;;;;8.83;5.40;;;6.00;1.00;;;;;;8378806;28;20192;-68
2023/03/07 17:06:31;;;;;;;7.03;5.07;;;5.90;1.00;;;;;;8365347;28;20544;-67
2023/03/07 17:10:32;;;;;;;8.53;5.57;;;5.80;1.00;;;;;;8363274;28;20182;-67
2023/03/07 17:14:33;;;;;;;7.80;5.50;;;5.70;1.00;;;;;;8361457;28;20182;-63
2023/03/07 17:18:34;;;;;;;6.93;5.27;;;5.70;1.00;;;;;;8364338;28;20574;-64
2023/03/07 17:22:36;;;;;;;6.43;5.03;;;5.60;1.00;;;;;;8361977;28;20224;-64
2023/03/07 17:26:41;;;;;;;5.70;4.50;;;5.60;1.00;;;;;;8365455;28;20208;-64
2023/03/07 17:30:44;;;;;;;6.97;5.00;;;5.50;1.00;;;;;;8373135;28;20300;-64
2023/03/07 17:34:45;;;;;;;7.03;5.00;;;5.50;1.00;;;;;;8366060;28;20216;-63
2023/03/07 17:38:46;;;;;;;6.40;4.50;;;5.50;1.00;;;;;;8363243;28;20619;-64
2023/03/07 17:42:49;;;;;;;7.90;4.93;;;5.40;4.30;;;;;;8363884;28;20198;-64
2023/03/07 17:46:54;;;;;;;7.83;5.07;;;5.40;10.10;;;;;;8364124;28;20237;-63
2023/03/07 17:50:56;;;;;;;8.93;5.50;;;5.40;9.50;;;;;;8364250;28;20206;-63
2023/03/07 17:54:57;;;;;;;7.03;5.03;;;5.40;9.60;;;;;;8358465;28;20186;-63
2023/03/07 17:59:01;;;;;;;8.70;5.00;;;5.40;10.70;;;;;;8360861;28;20206;-63
2023/03/07 18:03:01;;;;;;;6.13;4.47;;;5.40;15.00;;;;;;8376886;28;20181;-63
2023/03/07 18:07:03;;;;;;;8.47;5.50;;;5.30;14.70;;;;;;8362044;28;20246;-63
2023/03/07 18:11:06;;;;;;;7.13;5.00;;;5.40;15.70;;;;;;8364045;28;20280;-64
2023/03/07 18:15:14;;;;;;;8.33;5.00;;;5.40;14.00;;;;;;8357860;28;20267;-64
2023/03/07 18:19:15;;;;;;;8.03;5.10;;;5.40;28.10;;;;;;8349227;28;20187;-64
2023/03/07 18:23:16;;;;;;;8.20;5.47;;;5.40;68.00;;;;;;8362313;28;20192;-64
2023/03/07 18:27:16;;;;;;;7.30;4.90;;;5.40;99.90;;;;;;8359907;28;20208;-63
2023/03/07 18:31:21;;;;;;;7.30;5.33;;;5.30;99.90;;;;;;8364512;28;20189;-63
2023/03/07 18:35:22;;;;;;;9.13;5.63;;;5.20;99.90;;;;;;8360266;28;20197;-65
2023/03/07 18:39:23;;;;;;;3.63;3.10;;;5.10;99.90;;;;;;8363547;28;20188;-65
2023/03/07 18:43:24;;;;;;;4.77;3.47;;;4.80;99.90;;;;;;8361086;28;20193;-64
2023/03/07 18:47:25;;;;;;;3.53;2.70;;;4.00;1.00;;;;;;8364635;28;20217;-62
2023/03/07 18:51:27;;;;;;;2.50;1.77;;;3.20;99.90;;;;;;8363575;28;20179;-63
2023/03/07 18:55:28;;;;;;;6.33;3.50;;;2.80;99.90;;;;;;8363885;28;20182;-63
2023/03/07 18:59:29;;;;;;;3.97;2.60;;;2.50;99.90;;;;;;8366757;28;20188;-63
2023/03/07 19:03:30;;;;;;;4.83;2.20;;;2.30;1.00;;;;;;8358806;28;20216;-64
2023/03/07 19:07:31;;;;;;;3.23;1.93;;;2.10;1.00;;;;;;8356941;28;20210;-64
2023/03/07 19:11:32;;;;;;;3.83;2.37;;;1.90;1.00;;;;;;8359907;28;20174;-66
2023/03/07 19:15:34;;;;;;;9.47;4.47;;;1.80;99.90;;;;;;8365032;28;20184;-63
2023/03/07 19:19:35;;;;;;;3.97;1.80;;;1.80;99.90;;;;;;8361712;28;20190;-63
2023/03/07 19:23:37;;;;;;;2.40;1.70;;;1.70;99.90;;;;;;8360484;28;20193;-63
2023/03/07 19:27:38;;;;;;;3.73;2.20;;;1.60;99.90;;;;;;8364456;28;20308;-64
2023/03/07 19:31:42;;;;;;;3.00;2.03;;;1.70;1.00;;;;;;8363783;28;20184;-63
2023/03/07 19:35:43;;;;;;;9.67;4.13;;;1.60;1.00;;;;;;8364919;28;20247;-63
2023/03/07 19:39:48;;;;;;;2.07;1.60;;;1.60;99.90;;;;;;8365214;28;20251;-63
2023/03/07 19:43:50;;;;;;;3.03;1.37;;;1.60;86.10;;;;;;8365873;28;20197;-63
2023/03/07 19:47:53;;;;;;;1.67;1.33;;;1.60;99.90;;;;;;8364351;28;20201;-63
2023/03/07 19:51:54;;;;;;;1.57;1.43;;;1.60;99.90;;;;;;8370341;28;20186;-64
2023/03/07 19:55:55;;;;;;;1.23;1.07;;;1.60;99.90;;;;;;8366993;28;20192;-63
2023/03/07 19:59:56;;;;;;;4.97;2.27;;;1.60;99.90;;;;;;8365828;28;20506;-64
2023/03/07 20:03:57;;;;;;;1.93;1.53;;;1.60;99.90;;;;;;8363257;28;20196;-68
2023/03/07 20:07:58;;;;;;;1.50;1.00;;;1.60;1.00;;;;;;8367296;28;20488;-64
2023/03/07 20:11:59;;;;;;;1.37;1.10;;;1.60;99.90;;;;;;8366593;28;20200;-64
2023/03/07 20:16:00;;;;;;;1.50;1.40;;;1.60;1.00;;;;;;8366749;28;20194;-64
2023/03/07 20:20:03;;;;;;;1.90;1.70;;;1.70;99.90;;;;;;8364489;28;20189;-68
2023/03/07 20:24:05;;;;;;;1.20;1.10;;;1.70;1.00;;;;;;8366105;28;20280;-68
2023/03/07 20:28:06;;;;;;;1.50;1.40;;;1.70;99.90;;;;;;8384354;28;20212;-68
2023/03/07 20:32:07;;;;;;;1.60;1.03;;;1.60;1.00;;;;;;8360458;28;20216;-67
2023/03/07 20:36:14;;;;;;;1.67;1.57;;;1.60;99.90;;;;;;8362587;28;20209;-68
2023/03/07 20:40:16;;;;;;;1.60;1.50;;;1.60;99.90;;;;;;8361389;28;20196;-68
2023/03/07 20:44:17;;;;;;;1.63;1.53;;;1.70;99.90;;;;;;8365443;28;20204;-68
2023/03/07 20:48:18;;;;;;;2.23;1.60;;;1.70;54.50;;;;;;8366135;28;20255;-68
2023/03/07 20:52:20;;;;;;;2.30;1.80;;;1.60;1.00;;;;;;8367320;28;20609;-68
2023/03/07 20:56:23;;;;;;;2.40;1.73;;;1.60;99.90;;;;;;8363986;28;20197;-68
2023/03/07 21:00:24;;;;;;;4.43;2.20;;;1.60;99.90;;;;;;8365631;28;20268;-68
2023/03/07 21:04:24;;;;;;;2.53;1.80;;;1.60;99.90;;;;;;8366555;28;20194;-68
2023/03/07 21:08:28;;;;;;;2.23;1.83;;;1.60;99.90;;;;;;8366876;28;20283;-68
2023/03/07 21:12:29;;;;;;;2.37;1.83;;;1.60;99.90;;;;;;8366507;28;20182;-68
2023/03/07 21:16:30;;;;;;;3.23;2.20;;;1.50;13.80;;;;;;8362840;28;20235;-69
2023/03/07 21:20:31;;;;;;;2.80;2.20;;;1.50;1.00;;;;;;8363607;28;20189;-68